sensor_id;sensor_type;location;lat;lon;timestamp;P1;durP1;ratioP1;P2;durP2;ratioP2
11675;SDS011;5894;42.768;23.404;2022-07-03T00:01:21;8.30;;;7.50;;
11675;SDS011;5894;42.768;23.404;2022-07-03T00:03:48;8.18;;;7.05;;
11675;SDS011;5894;42.768;23.404;2022-07-03T00:06:15;7.85;;;7.05;;
11675;SDS011;5894;42.768;23.404;2022-07-03T00:08:43;9.70;;;7.78;;
11675;SDS011;5894;42.768;23.404;2022-07-03T00:11:10;7.80;;;7.00;;
11675;SDS011;5894;42.768;23.404;2022-07-03T00:13:38;8.10;;;7.30;;
11675;SDS011;5894;42.768;23.404;2022-07-03T00:16:05;8.48;;;7.68;;
11675;SDS011;5894;42.768;23.404;2022-07-03T00:18:31;10.55;;;7.05;;
11675;SDS011;5894;42.768;23.404;2022-07-03T00:20:59;8.05;;;7.25;;
11675;SDS011;5894;42.768;23.404;2022-07-03T00:23:28;8.30;;;7.50;;
11675;SDS011;5894;42.768;23.404;2022-07-03T00:25:58;8.70;;;7.78;;
11675;SDS011;5894;42.768;23.404;2022-07-03T00:28:26;7.78;;;7.05;;
11675;SDS011;5894;42.768;23.404;2022-07-03T00:30:55;7.75;;;6.95;;
11675;SDS011;5894;42.768;23.404;2022-07-03T00:33:23;7.93;;;6.68;;
11675;SDS011;5894;42.768;23.404;2022-07-03T00:35:54;7.38;;;6.68;;
11675;SDS011;5894;42.768;23.404;2022-07-03T00:38:22;8.45;;;7.30;;
11675;SDS011;5894;42.768;23.404;2022-07-03T00:40:49;8.43;;;7.28;;
11675;SDS011;5894;42.768;23.404;2022-07-03T00:43:17;8.05;;;6.90;;
11675;SDS011;5894;42.768;23.404;2022-07-03T00:45:45;8.77;;;7.15;;
11675;SDS011;5894;42.768;23.404;2022-07-03T00:48:13;7.78;;;6.97;;
11675;SDS011;5894;42.768;23.404;2022-07-03T00:50:45;7.93;;;7.20;;
11675;SDS011;5894;42.768;23.404;2022-07-03T00:53:14;8.10;;;7.30;;
11675;SDS011;5894;42.768;23.404;2022-07-03T00:55:45;8.20;;;7.18;;
11675;SDS011;5894;42.768;23.404;2022-07-03T00:58:14;8.07;;;7.28;;
11675;SDS011;5894;42.768;23.404;2022-07-03T01:00:44;10.18;;;7.07;;
11675;SDS011;5894;42.768;23.404;2022-07-03T01:03:13;8.48;;;7.43;;
11675;SDS011;5894;42.768;23.404;2022-07-03T01:05:43;8.82;;;7.88;;
11675;SDS011;5894;42.768;23.404;2022-07-03T01:08:11;7.95;;;7.18;;
11675;SDS011;5894;42.768;23.404;2022-07-03T01:10:54;7.80;;;7.10;;
11675;SDS011;5894;42.768;23.404;2022-07-03T01:13:27;7.75;;;6.93;;
11675;SDS011;5894;42.768;23.404;2022-07-03T01:16:06;7.43;;;6.80;;
11675;SDS011;5894;42.768;23.404;2022-07-03T01:18:40;7.97;;;7.25;;
11675;SDS011;5894;42.768;23.404;2022-07-03T01:21:15;7.57;;;6.82;;
11675;SDS011;5894;42.768;23.404;2022-07-03T01:26:45;7.55;;;6.78;;
11675;SDS011;5894;42.768;23.404;2022-07-03T01:29:16;7.80;;;6.90;;
11675;SDS011;5894;42.768;23.404;2022-07-03T01:31:48;8.00;;;7.20;;
11675;SDS011;5894;42.768;23.404;2022-07-03T01:34:18;7.93;;;7.13;;
11675;SDS011;5894;42.768;23.404;2022-07-03T01:36:46;7.70;;;7.00;;
11675;SDS011;5894;42.768;23.404;2022-07-03T01:39:15;7.80;;;7.10;;
11675;SDS011;5894;42.768;23.404;2022-07-03T01:41:45;8.00;;;7.20;;
11675;SDS011;5894;42.768;23.404;2022-07-03T01:44:16;7.80;;;7.10;;
11675;SDS011;5894;42.768;23.404;2022-07-03T01:46:46;7.28;;;6.57;;
11675;SDS011;5894;42.768;23.404;2022-07-03T01:49:13;8.38;;;6.93;;
11675;SDS011;5894;42.768;23.404;2022-07-03T01:51:41;7.85;;;7.15;;
11675;SDS011;5894;42.768;23.404;2022-07-03T01:54:09;8.98;;;7.20;;
11675;SDS011;5894;42.768;23.404;2022-07-03T01:56:36;7.40;;;6.70;;
11675;SDS011;5894;42.768;23.404;2022-07-03T01:59:04;8.32;;;7.47;;
11675;SDS011;5894;42.768;23.404;2022-07-03T02:01:33;9.35;;;7.07;;
11675;SDS011;5894;42.768;23.404;2022-07-03T02:04:11;7.88;;;6.95;;
11675;SDS011;5894;42.768;23.404;2022-07-03T02:06:50;7.95;;;7.25;;
11675;SDS011;5894;42.768;23.404;2022-07-03T02:09:27;7.75;;;6.93;;
11675;SDS011;5894;42.768;23.404;2022-07-03T02:12:02;7.15;;;6.47;;
11675;SDS011;5894;42.768;23.404;2022-07-03T02:14:36;8.40;;;7.05;;
11675;SDS011;5894;42.768;23.404;2022-07-03T02:17:08;7.65;;;6.95;;
11675;SDS011;5894;42.768;23.404;2022-07-03T02:19:41;7.15;;;6.45;;
11675;SDS011;5894;42.768;23.404;2022-07-03T02:22:11;8.07;;;7.00;;
11675;SDS011;5894;42.768;23.404;2022-07-03T02:24:41;7.43;;;6.82;;
11675;SDS011;5894;42.768;23.404;2022-07-03T02:27:12;8.38;;;7.57;;
11675;SDS011;5894;42.768;23.404;2022-07-03T02:29:46;7.72;;;6.97;;
11675;SDS011;5894;42.768;23.404;2022-07-03T02:32:15;7.70;;;6.93;;
11675;SDS011;5894;42.768;23.404;2022-07-03T02:34:48;7.55;;;6.85;;
11675;SDS011;5894;42.768;23.404;2022-07-03T02:37:22;8.02;;;7.22;;
11675;SDS011;5894;42.768;23.404;2022-07-03T02:39:57;7.80;;;7.03;;
11675;SDS011;5894;42.768;23.404;2022-07-03T02:42:30;7.57;;;6.85;;
11675;SDS011;5894;42.768;23.404;2022-07-03T02:45:06;8.32;;;6.78;;
11675;SDS011;5894;42.768;23.404;2022-07-03T02:47:37;7.57;;;6.78;;
11675;SDS011;5894;42.768;23.404;2022-07-03T02:50:12;8.23;;;7.40;;
11675;SDS011;5894;42.768;23.404;2022-07-03T02:52:47;8.23;;;6.90;;
11675;SDS011;5894;42.768;23.404;2022-07-03T02:55:26;10.30;;;7.10;;
11675;SDS011;5894;42.768;23.404;2022-07-03T02:58:08;7.63;;;6.93;;
11675;SDS011;5894;42.768;23.404;2022-07-03T03:00:58;8.65;;;6.70;;
11675;SDS011;5894;42.768;23.404;2022-07-03T03:03:29;7.72;;;7.00;;
11675;SDS011;5894;42.768;23.404;2022-07-03T03:05:59;7.68;;;6.93;;
11675;SDS011;5894;42.768;23.404;2022-07-03T03:08:31;8.68;;;7.18;;
11675;SDS011;5894;42.768;23.404;2022-07-03T03:11:05;8.85;;;7.35;;
11675;SDS011;5894;42.768;23.404;2022-07-03T03:13:33;9.27;;;8.05;;
11675;SDS011;5894;42.768;23.404;2022-07-03T03:16:05;8.45;;;7.75;;
11675;SDS011;5894;42.768;23.404;2022-07-03T03:18:34;8.43;;;7.10;;
11675;SDS011;5894;42.768;23.404;2022-07-03T03:21:03;8.30;;;7.50;;
11675;SDS011;5894;42.768;23.404;2022-07-03T03:23:38;9.32;;;8.18;;
11675;SDS011;5894;42.768;23.404;2022-07-03T03:26:10;10.73;;;7.70;;
11675;SDS011;5894;42.768;23.404;2022-07-03T03:28:38;7.55;;;6.82;;
11675;SDS011;5894;42.768;23.404;2022-07-03T03:31:07;8.48;;;7.57;;
11675;SDS011;5894;42.768;23.404;2022-07-03T03:33:39;9.38;;;7.47;;
11675;SDS011;5894;42.768;23.404;2022-07-03T03:36:07;8.10;;;7.28;;
11675;SDS011;5894;42.768;23.404;2022-07-03T03:38:34;8.38;;;7.57;;
11675;SDS011;5894;42.768;23.404;2022-07-03T03:41:01;9.43;;;7.50;;
11675;SDS011;5894;42.768;23.404;2022-07-03T03:43:29;8.88;;;7.97;;
11675;SDS011;5894;42.768;23.404;2022-07-03T03:45:57;8.18;;;7.43;;
11675;SDS011;5894;42.768;23.404;2022-07-03T03:55:25;7.65;;;6.95;;
11675;SDS011;5894;42.768;23.404;2022-07-03T03:57:52;8.57;;;7.80;;
11675;SDS011;5894;42.768;23.404;2022-07-03T04:00:19;11.02;;;8.05;;
11675;SDS011;5894;42.768;23.404;2022-07-03T04:02:45;8.57;;;7.78;;
11675;SDS011;5894;42.768;23.404;2022-07-03T04:05:12;8.85;;;7.95;;
11675;SDS011;5894;42.768;23.404;2022-07-03T04:07:39;10.10;;;8.35;;
11675;SDS011;5894;42.768;23.404;2022-07-03T04:10:06;11.02;;;8.43;;
11675;SDS011;5894;42.768;23.404;2022-07-03T04:12:35;9.07;;;8.18;;
11675;SDS011;5894;42.768;23.404;2022-07-03T04:15:02;9.13;;;8.30;;
11675;SDS011;5894;42.768;23.404;2022-07-03T04:17:29;9.95;;;8.18;;
11675;SDS011;5894;42.768;23.404;2022-07-03T04:19:56;9.57;;;7.90;;
11675;SDS011;5894;42.768;23.404;2022-07-03T04:22:23;9.48;;;8.20;;
11675;SDS011;5894;42.768;23.404;2022-07-03T04:24:50;10.80;;;8.15;;
11675;SDS011;5894;42.768;23.404;2022-07-03T04:27:17;9.18;;;8.27;;
11675;SDS011;5894;42.768;23.404;2022-07-03T04:29:45;9.68;;;8.13;;
11675;SDS011;5894;42.768;23.404;2022-07-03T04:32:11;8.93;;;8.13;;
11675;SDS011;5894;42.768;23.404;2022-07-03T04:34:38;9.02;;;8.23;;
11675;SDS011;5894;42.768;23.404;2022-07-03T04:37:05;8.52;;;7.72;;
11675;SDS011;5894;42.768;23.404;2022-07-03T04:39:32;8.80;;;7.90;;
11675;SDS011;5894;42.768;23.404;2022-07-03T04:41:59;9.02;;;8.13;;
11675;SDS011;5894;42.768;23.404;2022-07-03T04:44:27;8.93;;;7.93;;
11675;SDS011;5894;42.768;23.404;2022-07-03T04:46:55;9.35;;;8.45;;
11675;SDS011;5894;42.768;23.404;2022-07-03T04:49:22;10.15;;;8.40;;
11675;SDS011;5894;42.768;23.404;2022-07-03T04:51:49;9.75;;;8.70;;
11675;SDS011;5894;42.768;23.404;2022-07-03T04:54:17;9.18;;;8.10;;
11675;SDS011;5894;42.768;23.404;2022-07-03T04:56:44;9.20;;;8.27;;
11675;SDS011;5894;42.768;23.404;2022-07-03T04:59:11;10.27;;;7.93;;
11675;SDS011;5894;42.768;23.404;2022-07-03T05:01:38;10.70;;;8.32;;
11675;SDS011;5894;42.768;23.404;2022-07-03T05:04:06;8.82;;;7.95;;
11675;SDS011;5894;42.768;23.404;2022-07-03T05:06:33;9.40;;;8.48;;
11675;SDS011;5894;42.768;23.404;2022-07-03T05:09:00;9.18;;;8.15;;
11675;SDS011;5894;42.768;23.404;2022-07-03T05:11:26;9.07;;;8.18;;
11675;SDS011;5894;42.768;23.404;2022-07-03T05:13:53;11.02;;;8.32;;
11675;SDS011;5894;42.768;23.404;2022-07-03T05:16:20;9.55;;;8.43;;
11675;SDS011;5894;42.768;23.404;2022-07-03T05:18:47;13.75;;;8.30;;
11675;SDS011;5894;42.768;23.404;2022-07-03T05:21:15;9.45;;;8.55;;
11675;SDS011;5894;42.768;23.404;2022-07-03T05:23:42;9.43;;;8.52;;
11675;SDS011;5894;42.768;23.404;2022-07-03T05:26:09;10.40;;;8.27;;
11675;SDS011;5894;42.768;23.404;2022-07-03T05:28:36;9.18;;;8.27;;
11675;SDS011;5894;42.768;23.404;2022-07-03T05:31:03;9.45;;;8.65;;
11675;SDS011;5894;42.768;23.404;2022-07-03T05:33:30;9.70;;;8.10;;
11675;SDS011;5894;42.768;23.404;2022-07-03T05:35:57;8.27;;;7.50;;
11675;SDS011;5894;42.768;23.404;2022-07-03T05:38:26;9.15;;;8.25;;
11675;SDS011;5894;42.768;23.404;2022-07-03T05:41:11;9.05;;;8.00;;
11675;SDS011;5894;42.768;23.404;2022-07-03T05:43:38;9.35;;;8.45;;
11675;SDS011;5894;42.768;23.404;2022-07-03T05:46:05;8.88;;;8.07;;
11675;SDS011;5894;42.768;23.404;2022-07-03T05:48:31;8.80;;;7.45;;
11675;SDS011;5894;42.768;23.404;2022-07-03T05:50:58;8.88;;;7.97;;
11675;SDS011;5894;42.768;23.404;2022-07-03T05:53:27;10.00;;;7.82;;
11675;SDS011;5894;42.768;23.404;2022-07-03T05:55:53;9.43;;;7.65;;
11675;SDS011;5894;42.768;23.404;2022-07-03T05:58:20;8.48;;;7.65;;
11675;SDS011;5894;42.768;23.404;2022-07-03T06:00:47;8.23;;;7.43;;
11675;SDS011;5894;42.768;23.404;2022-07-03T06:03:14;8.52;;;7.70;;
11675;SDS011;5894;42.768;23.404;2022-07-03T06:05:41;8.23;;;7.43;;
11675;SDS011;5894;42.768;23.404;2022-07-03T06:08:08;7.57;;;6.88;;
11675;SDS011;5894;42.768;23.404;2022-07-03T06:10:37;7.68;;;7.07;;
11675;SDS011;5894;42.768;23.404;2022-07-03T06:13:03;7.78;;;7.03;;
11675;SDS011;5894;42.768;23.404;2022-07-03T06:15:30;8.25;;;7.45;;
11675;SDS011;5894;42.768;23.404;2022-07-03T06:17:57;8.10;;;7.30;;
11675;SDS011;5894;42.768;23.404;2022-07-03T06:20:24;9.52;;;7.90;;
11675;SDS011;5894;42.768;23.404;2022-07-03T06:22:53;8.88;;;7.57;;
11675;SDS011;5894;42.768;23.404;2022-07-03T06:25:19;8.32;;;7.53;;
11675;SDS011;5894;42.768;23.404;2022-07-03T06:27:48;10.23;;;7.47;;
11675;SDS011;5894;42.768;23.404;2022-07-03T06:30:15;8.68;;;7.80;;
11675;SDS011;5894;42.768;23.404;2022-07-03T06:32:41;7.78;;;7.00;;
11675;SDS011;5894;42.768;23.404;2022-07-03T06:35:08;7.65;;;6.95;;
11675;SDS011;5894;42.768;23.404;2022-07-03T06:37:35;7.63;;;6.93;;
11675;SDS011;5894;42.768;23.404;2022-07-03T06:40:02;7.93;;;7.10;;
11675;SDS011;5894;42.768;23.404;2022-07-03T06:42:30;9.07;;;7.40;;
11675;SDS011;5894;42.768;23.404;2022-07-03T06:44:58;9.52;;;7.68;;
11675;SDS011;5894;42.768;23.404;2022-07-03T06:47:25;10.13;;;7.68;;
11675;SDS011;5894;42.768;23.404;2022-07-03T06:49:51;8.13;;;7.43;;
11675;SDS011;5894;42.768;23.404;2022-07-03T06:52:18;11.10;;;9.65;;
11675;SDS011;5894;42.768;23.404;2022-07-03T06:54:46;10.80;;;8.77;;
11675;SDS011;5894;42.768;23.404;2022-07-03T06:57:13;9.73;;;8.05;;
11675;SDS011;5894;42.768;23.404;2022-07-03T06:59:40;8.90;;;7.30;;
11675;SDS011;5894;42.768;23.404;2022-07-03T07:02:09;8.35;;;7.40;;
11675;SDS011;5894;42.768;23.404;2022-07-03T07:04:36;8.02;;;7.32;;
11675;SDS011;5894;42.768;23.404;2022-07-03T07:07:03;11.88;;;9.50;;
11675;SDS011;5894;42.768;23.404;2022-07-03T07:09:30;17.10;;;13.35;;
11675;SDS011;5894;42.768;23.404;2022-07-03T07:11:57;13.32;;;10.40;;
11675;SDS011;5894;42.768;23.404;2022-07-03T07:14:23;11.30;;;9.80;;
11675;SDS011;5894;42.768;23.404;2022-07-03T07:16:50;10.63;;;8.65;;
11675;SDS011;5894;42.768;23.404;2022-07-03T07:19:19;8.23;;;7.43;;
11675;SDS011;5894;42.768;23.404;2022-07-03T07:21:45;8.18;;;7.47;;
11675;SDS011;5894;42.768;23.404;2022-07-03T07:24:12;10.95;;;7.93;;
11675;SDS011;5894;42.768;23.404;2022-07-03T07:26:39;8.57;;;7.85;;
11675;SDS011;5894;42.768;23.404;2022-07-03T07:29:06;8.98;;;8.07;;
11675;SDS011;5894;42.768;23.404;2022-07-03T07:31:33;9.35;;;8.45;;
11675;SDS011;5894;42.768;23.404;2022-07-03T07:34:00;10.52;;;9.60;;
11675;SDS011;5894;42.768;23.404;2022-07-03T07:36:30;8.75;;;7.93;;
11675;SDS011;5894;42.768;23.404;2022-07-03T07:38:58;9.85;;;8.85;;
11675;SDS011;5894;42.768;23.404;2022-07-03T07:41:24;11.98;;;9.27;;
11675;SDS011;5894;42.768;23.404;2022-07-03T07:43:51;13.48;;;11.63;;
11675;SDS011;5894;42.768;23.404;2022-07-03T07:46:18;14.95;;;12.60;;
11675;SDS011;5894;42.768;23.404;2022-07-03T07:48:45;18.05;;;13.73;;
11675;SDS011;5894;42.768;23.404;2022-07-03T07:51:12;13.05;;;10.40;;
11675;SDS011;5894;42.768;23.404;2022-07-03T07:53:40;26.20;;;17.83;;
11675;SDS011;5894;42.768;23.404;2022-07-03T07:56:07;16.77;;;12.27;;
11675;SDS011;5894;42.768;23.404;2022-07-03T07:58:34;12.05;;;9.57;;
11675;SDS011;5894;42.768;23.404;2022-07-03T08:01:01;11.25;;;8.90;;
11675;SDS011;5894;42.768;23.404;2022-07-03T08:03:45;9.18;;;8.18;;
11675;SDS011;5894;42.768;23.404;2022-07-03T08:06:29;8.85;;;6.80;;
11675;SDS011;5894;42.768;23.404;2022-07-03T08:08:58;7.35;;;6.65;;
11675;SDS011;5894;42.768;23.404;2022-07-03T08:11:24;9.77;;;7.18;;
11675;SDS011;5894;42.768;23.404;2022-07-03T08:13:51;8.20;;;7.45;;
11675;SDS011;5894;42.768;23.404;2022-07-03T08:16:18;7.90;;;7.15;;
11675;SDS011;5894;42.768;23.404;2022-07-03T08:18:45;7.05;;;6.45;;
11675;SDS011;5894;42.768;23.404;2022-07-03T08:21:12;6.82;;;5.85;;
11675;SDS011;5894;42.768;23.404;2022-07-03T08:23:38;6.00;;;5.38;;
11675;SDS011;5894;42.768;23.404;2022-07-03T08:26:07;6.05;;;5.43;;
11675;SDS011;5894;42.768;23.404;2022-07-03T08:28:33;6.88;;;5.80;;
11675;SDS011;5894;42.768;23.404;2022-07-03T08:31:00;6.28;;;5.70;;
11675;SDS011;5894;42.768;23.404;2022-07-03T08:33:27;7.20;;;5.63;;
11675;SDS011;5894;42.768;23.404;2022-07-03T08:35:54;6.32;;;5.82;;
11675;SDS011;5894;42.768;23.404;2022-07-03T08:38:21;7.18;;;5.72;;
11675;SDS011;5894;42.768;23.404;2022-07-03T08:40:55;7.30;;;5.80;;
11675;SDS011;5894;42.768;23.404;2022-07-03T08:43:25;6.50;;;5.90;;
11675;SDS011;5894;42.768;23.404;2022-07-03T08:45:52;8.55;;;5.95;;
11675;SDS011;5894;42.768;23.404;2022-07-03T08:48:20;6.70;;;5.35;;
11675;SDS011;5894;42.768;23.404;2022-07-03T08:50:48;5.88;;;5.20;;
11675;SDS011;5894;42.768;23.404;2022-07-03T08:53:17;11.20;;;7.63;;
11675;SDS011;5894;42.768;23.404;2022-07-03T08:55:44;8.60;;;6.72;;
11675;SDS011;5894;42.768;23.404;2022-07-03T08:58:12;4.97;;;4.55;;
11675;SDS011;5894;42.768;23.404;2022-07-03T09:00:41;5.65;;;4.55;;
11675;SDS011;5894;42.768;23.404;2022-07-03T09:03:09;4.82;;;4.30;;
11675;SDS011;5894;42.768;23.404;2022-07-03T09:05:36;6.45;;;4.82;;
11675;SDS011;5894;42.768;23.404;2022-07-03T09:08:05;5.00;;;4.57;;
11675;SDS011;5894;42.768;23.404;2022-07-03T09:10:33;4.68;;;4.28;;
11675;SDS011;5894;42.768;23.404;2022-07-03T09:13:00;4.47;;;4.07;;
11675;SDS011;5894;42.768;23.404;2022-07-03T09:15:27;6.90;;;5.05;;
11675;SDS011;5894;42.768;23.404;2022-07-03T09:17:59;6.82;;;4.20;;
11675;SDS011;5894;42.768;23.404;2022-07-03T09:20:27;14.75;;;6.43;;
11675;SDS011;5894;42.768;23.404;2022-07-03T09:22:59;5.20;;;4.70;;
11675;SDS011;5894;42.768;23.404;2022-07-03T09:25:35;4.75;;;4.35;;
11675;SDS011;5894;42.768;23.404;2022-07-03T09:28:16;8.73;;;7.03;;
11675;SDS011;5894;42.768;23.404;2022-07-03T09:30:50;6.07;;;5.47;;
11675;SDS011;5894;42.768;23.404;2022-07-03T09:33:23;8.07;;;6.50;;
11675;SDS011;5894;42.768;23.404;2022-07-03T09:35:52;13.23;;;7.90;;
11675;SDS011;5894;42.768;23.404;2022-07-03T09:38:20;11.00;;;7.75;;
11675;SDS011;5894;42.768;23.404;2022-07-03T09:40:48;13.80;;;7.78;;
11675;SDS011;5894;42.768;23.404;2022-07-03T09:43:21;14.00;;;9.93;;
11675;SDS011;5894;42.768;23.404;2022-07-03T09:45:50;6.72;;;5.18;;
11675;SDS011;5894;42.768;23.404;2022-07-03T09:48:24;5.20;;;4.25;;
11675;SDS011;5894;42.768;23.404;2022-07-03T09:56:26;9.18;;;6.07;;
11675;SDS011;5894;42.768;23.404;2022-07-03T09:59:00;9.18;;;6.55;;
11675;SDS011;5894;42.768;23.404;2022-07-03T10:01:32;8.50;;;6.07;;
11675;SDS011;5894;42.768;23.404;2022-07-03T10:04:14;12.68;;;8.98;;
11675;SDS011;5894;42.768;23.404;2022-07-03T10:06:45;7.78;;;6.00;;
11675;SDS011;5894;42.768;23.404;2022-07-03T10:09:22;5.70;;;5.20;;
11675;SDS011;5894;42.768;23.404;2022-07-03T10:11:50;4.13;;;3.83;;
11675;SDS011;5894;42.768;23.404;2022-07-03T10:14:19;8.70;;;6.45;;
11675;SDS011;5894;42.768;23.404;2022-07-03T10:16:47;7.28;;;4.30;;
11675;SDS011;5894;42.768;23.404;2022-07-03T10:19:18;9.52;;;6.00;;
11675;SDS011;5894;42.768;23.404;2022-07-03T10:21:51;5.40;;;4.72;;
11675;SDS011;5894;42.768;23.404;2022-07-03T10:24:21;9.20;;;5.90;;
11675;SDS011;5894;42.768;23.404;2022-07-03T10:26:49;11.95;;;7.43;;
11675;SDS011;5894;42.768;23.404;2022-07-03T10:29:16;11.55;;;7.80;;
11675;SDS011;5894;42.768;23.404;2022-07-03T10:31:46;6.20;;;4.93;;
11675;SDS011;5894;42.768;23.404;2022-07-03T10:34:15;5.43;;;4.90;;
11675;SDS011;5894;42.768;23.404;2022-07-03T10:36:46;24.63;;;14.77;;
11675;SDS011;5894;42.768;23.404;2022-07-03T10:39:18;15.57;;;9.40;;
11675;SDS011;5894;42.768;23.404;2022-07-03T10:41:53;16.08;;;11.95;;
11675;SDS011;5894;42.768;23.404;2022-07-03T10:44:50;18.20;;;12.65;;
11675;SDS011;5894;42.768;23.404;2022-07-03T10:50:08;11.07;;;8.73;;
11675;SDS011;5894;42.768;23.404;2022-07-03T10:52:37;25.95;;;16.00;;
11675;SDS011;5894;42.768;23.404;2022-07-03T10:55:05;13.00;;;9.25;;
11675;SDS011;5894;42.768;23.404;2022-07-03T10:57:32;17.95;;;11.75;;
11675;SDS011;5894;42.768;23.404;2022-07-03T11:00:04;7.85;;;6.13;;
11675;SDS011;5894;42.768;23.404;2022-07-03T11:02:38;9.23;;;4.53;;
11675;SDS011;5894;42.768;23.404;2022-07-03T11:05:11;4.30;;;3.90;;
11675;SDS011;5894;42.768;23.404;2022-07-03T11:10:35;4.07;;;3.70;;
11675;SDS011;5894;42.768;23.404;2022-07-03T11:13:07;6.20;;;4.00;;
11675;SDS011;5894;42.768;23.404;2022-07-03T11:15:41;5.13;;;4.60;;
11675;SDS011;5894;42.768;23.404;2022-07-03T11:21:16;10.20;;;6.72;;
11675;SDS011;5894;42.768;23.404;2022-07-03T11:23:54;8.02;;;6.95;;
11675;SDS011;5894;42.768;23.404;2022-07-03T11:26:38;4.70;;;4.20;;
11675;SDS011;5894;42.768;23.404;2022-07-03T11:29:06;4.15;;;3.75;;
11675;SDS011;5894;42.768;23.404;2022-07-03T11:31:32;3.95;;;3.60;;
11675;SDS011;5894;42.768;23.404;2022-07-03T11:34:00;3.70;;;3.40;;
11675;SDS011;5894;42.768;23.404;2022-07-03T11:36:29;5.13;;;3.75;;
11675;SDS011;5894;42.768;23.404;2022-07-03T11:39:04;3.47;;;3.22;;
11675;SDS011;5894;42.768;23.404;2022-07-03T11:41:43;4.00;;;3.70;;
11675;SDS011;5894;42.768;23.404;2022-07-03T11:44:16;5.43;;;3.75;;
11675;SDS011;5894;42.768;23.404;2022-07-03T11:46:47;6.22;;;3.95;;
11675;SDS011;5894;42.768;23.404;2022-07-03T11:49:19;3.60;;;3.20;;
11675;SDS011;5894;42.768;23.404;2022-07-03T11:51:56;5.45;;;3.80;;
11675;SDS011;5894;42.768;23.404;2022-07-03T11:54:25;4.72;;;3.60;;
11675;SDS011;5894;42.768;23.404;2022-07-03T11:56:52;6.03;;;4.20;;
11675;SDS011;5894;42.768;23.404;2022-07-03T11:59:19;4.22;;;3.83;;
11675;SDS011;5894;42.768;23.404;2022-07-03T12:01:46;4.18;;;3.83;;
11675;SDS011;5894;42.768;23.404;2022-07-03T12:04:13;3.67;;;3.38;;
11675;SDS011;5894;42.768;23.404;2022-07-03T12:06:42;4.80;;;4.30;;
11675;SDS011;5894;42.768;23.404;2022-07-03T12:09:12;4.18;;;3.83;;
11675;SDS011;5894;42.768;23.404;2022-07-03T12:11:41;6.78;;;4.10;;
11675;SDS011;5894;42.768;23.404;2022-07-03T12:14:08;7.53;;;4.22;;
11675;SDS011;5894;42.768;23.404;2022-07-03T12:16:35;4.70;;;4.13;;
11675;SDS011;5894;42.768;23.404;2022-07-03T12:19:03;5.20;;;3.72;;
11675;SDS011;5894;42.768;23.404;2022-07-03T12:21:38;4.15;;;3.72;;
11675;SDS011;5894;42.768;23.404;2022-07-03T12:24:09;4.50;;;4.10;;
11675;SDS011;5894;42.768;23.404;2022-07-03T12:26:38;5.70;;;4.20;;
11675;SDS011;5894;42.768;23.404;2022-07-03T12:29:07;4.13;;;3.78;;
11675;SDS011;5894;42.768;23.404;2022-07-03T12:31:34;4.78;;;4.35;;
11675;SDS011;5894;42.768;23.404;2022-07-03T12:34:04;4.22;;;3.92;;
11675;SDS011;5894;42.768;23.404;2022-07-03T12:36:31;5.35;;;4.13;;
11675;SDS011;5894;42.768;23.404;2022-07-03T12:38:58;4.38;;;3.90;;
11675;SDS011;5894;42.768;23.404;2022-07-03T12:41:26;4.47;;;3.88;;
11675;SDS011;5894;42.768;23.404;2022-07-03T12:43:55;7.03;;;4.00;;
11675;SDS011;5894;42.768;23.404;2022-07-03T12:46:25;5.03;;;3.92;;
11675;SDS011;5894;42.768;23.404;2022-07-03T12:48:55;4.63;;;3.80;;
11675;SDS011;5894;42.768;23.404;2022-07-03T12:51:36;4.20;;;3.80;;
11675;SDS011;5894;42.768;23.404;2022-07-03T12:54:07;5.57;;;4.18;;
11675;SDS011;5894;42.768;23.404;2022-07-03T12:56:34;4.95;;;4.30;;
11675;SDS011;5894;42.768;23.404;2022-07-03T12:59:02;8.30;;;4.03;;
11675;SDS011;5894;42.768;23.404;2022-07-03T13:01:44;4.72;;;4.30;;
11675;SDS011;5894;42.768;23.404;2022-07-03T13:04:12;4.75;;;4.32;;
11675;SDS011;5894;42.768;23.404;2022-07-03T13:06:43;9.25;;;4.55;;
11675;SDS011;5894;42.768;23.404;2022-07-03T13:09:11;5.47;;;4.45;;
11675;SDS011;5894;42.768;23.404;2022-07-03T13:11:39;6.90;;;4.18;;
11675;SDS011;5894;42.768;23.404;2022-07-03T13:14:08;4.88;;;4.10;;
11675;SDS011;5894;42.768;23.404;2022-07-03T13:16:37;6.30;;;4.57;;
11675;SDS011;5894;42.768;23.404;2022-07-03T13:19:06;6.60;;;3.70;;
11675;SDS011;5894;42.768;23.404;2022-07-03T13:21:34;5.30;;;4.32;;
11675;SDS011;5894;42.768;23.404;2022-07-03T13:24:01;5.03;;;4.53;;
11675;SDS011;5894;42.768;23.404;2022-07-03T13:26:29;4.10;;;3.80;;
11675;SDS011;5894;42.768;23.404;2022-07-03T13:28:56;5.35;;;4.05;;
11675;SDS011;5894;42.768;23.404;2022-07-03T13:31:25;5.00;;;4.50;;
11675;SDS011;5894;42.768;23.404;2022-07-03T13:33:51;5.18;;;4.65;;
11675;SDS011;5894;42.768;23.404;2022-07-03T13:36:18;5.10;;;4.60;;
11675;SDS011;5894;42.768;23.404;2022-07-03T13:38:45;5.10;;;4.60;;
11675;SDS011;5894;42.768;23.404;2022-07-03T13:41:12;5.10;;;4.35;;
11675;SDS011;5894;42.768;23.404;2022-07-03T13:43:39;6.13;;;4.40;;
11675;SDS011;5894;42.768;23.404;2022-07-03T13:46:06;6.03;;;4.45;;
11675;SDS011;5894;42.768;23.404;2022-07-03T13:48:35;4.90;;;4.40;;
11675;SDS011;5894;42.768;23.404;2022-07-03T13:51:01;4.97;;;4.57;;
11675;SDS011;5894;42.768;23.404;2022-07-03T13:53:28;5.35;;;4.30;;
11675;SDS011;5894;42.768;23.404;2022-07-03T13:55:55;4.32;;;3.92;;
11675;SDS011;5894;42.768;23.404;2022-07-03T13:58:23;5.78;;;4.40;;
11675;SDS011;5894;42.768;23.404;2022-07-03T14:00:51;4.50;;;4.20;;
11675;SDS011;5894;42.768;23.404;2022-07-03T14:03:18;5.47;;;4.30;;
11675;SDS011;5894;42.768;23.404;2022-07-03T14:05:46;4.60;;;4.20;;
11675;SDS011;5894;42.768;23.404;2022-07-03T14:08:16;6.05;;;4.90;;
11675;SDS011;5894;42.768;23.404;2022-07-03T14:10:43;7.22;;;4.90;;
11675;SDS011;5894;42.768;23.404;2022-07-03T14:13:10;6.40;;;4.68;;
11675;SDS011;5894;42.768;23.404;2022-07-03T14:15:37;5.68;;;4.57;;
11675;SDS011;5894;42.768;23.404;2022-07-03T14:18:04;5.15;;;4.65;;
11675;SDS011;5894;42.768;23.404;2022-07-03T14:20:31;6.82;;;4.50;;
11675;SDS011;5894;42.768;23.404;2022-07-03T14:23:00;5.10;;;4.60;;
11675;SDS011;5894;42.768;23.404;2022-07-03T14:25:26;5.68;;;4.15;;
11675;SDS011;5894;42.768;23.404;2022-07-03T14:27:53;5.10;;;4.63;;
11675;SDS011;5894;42.768;23.404;2022-07-03T14:30:37;4.90;;;4.50;;
11675;SDS011;5894;42.768;23.404;2022-07-03T14:33:21;4.63;;;4.22;;
11675;SDS011;5894;42.768;23.404;2022-07-03T14:35:48;4.60;;;4.20;;
11675;SDS011;5894;42.768;23.404;2022-07-03T14:38:16;5.13;;;4.30;;
11675;SDS011;5894;42.768;23.404;2022-07-03T14:40:43;4.90;;;4.30;;
11675;SDS011;5894;42.768;23.404;2022-07-03T14:43:10;6.13;;;4.30;;
11675;SDS011;5894;42.768;23.404;2022-07-03T14:45:37;4.90;;;4.50;;
11675;SDS011;5894;42.768;23.404;2022-07-03T14:48:04;4.75;;;4.35;;
11675;SDS011;5894;42.768;23.404;2022-07-03T14:50:31;4.60;;;4.20;;
11675;SDS011;5894;42.768;23.404;2022-07-03T14:52:58;5.78;;;4.57;;
11675;SDS011;5894;42.768;23.404;2022-07-03T14:55:29;5.05;;;3.97;;
11675;SDS011;5894;42.768;23.404;2022-07-03T14:58:04;4.80;;;4.30;;
11675;SDS011;5894;42.768;23.404;2022-07-03T15:00:36;4.88;;;4.38;;
11675;SDS011;5894;42.768;23.404;2022-07-03T15:03:07;5.30;;;4.10;;
11675;SDS011;5894;42.768;23.404;2022-07-03T15:05:40;4.78;;;4.35;;
11675;SDS011;5894;42.768;23.404;2022-07-03T15:08:11;5.00;;;4.50;;
11675;SDS011;5894;42.768;23.404;2022-07-03T15:10:47;5.20;;;4.20;;
11675;SDS011;5894;42.768;23.404;2022-07-03T15:13:15;4.20;;;3.88;;
11675;SDS011;5894;42.768;23.404;2022-07-03T15:15:42;5.03;;;4.18;;
11675;SDS011;5894;42.768;23.404;2022-07-03T15:18:13;4.72;;;4.30;;
11675;SDS011;5894;42.768;23.404;2022-07-03T15:20:45;5.18;;;4.60;;
11675;SDS011;5894;42.768;23.404;2022-07-03T15:23:11;5.22;;;4.70;;